Time;durP1;ratioP1;P1;durP2;ratioP2;P2;SDS_P1;SDS_P2;PMS_P1;PMS_P2;Temp;Humidity;BMP_temperature;BMP_pressure;BME280_temperature;BME280_humidity;BME280_pressure;Samples;Min_cycle;Max_cycle;Signal;HPM_P1;HPM_P2
2023/05/27 00:01:18;;;;;;;0.50;0.20;;;;;;;21.59;45.61;101239.56;5006964;28;20026;-49
2023/05/27 00:03:48;;;;;;;0.52;0.30;;;;;;;21.67;45.08;101244.50;5007661;28;20550;-46
2023/05/27 00:06:14;;;;;;;0.47;0.30;;;;;;;21.33;46.43;101247.69;5008692;28;20066;-46
2023/05/27 00:08:40;;;;;;;0.32;0.30;;;;;;;21.49;45.46;101237.66;5008428;28;20033;-45
2023/05/27 00:11:06;;;;;;;0.10;0.10;;;;;;;21.38;44.99;101238.72;5005397;28;20026;-46
2023/05/27 00:13:33;;;;;;;0.30;0.30;;;;;;;21.06;46.43;101241.59;4994050;28;20031;-46
2023/05/27 00:15:59;;;;;;;1.13;0.50;;;;;;;21.00;46.44;101238.03;4994047;28;20606;-46
2023/05/27 00:18:25;;;;;;;0.65;0.35;;;;;;;20.97;46.42;101237.72;4999011;28;20184;-47
2023/05/27 00:20:51;;;;;;;0.30;0.22;;;;;;;20.66;46.88;101240.31;4996306;28;20030;-48
2023/05/27 00:23:18;;;;;;;0.47;0.38;;;;;;;20.66;47.10;101234.88;4999167;28;20052;-49
2023/05/27 00:25:44;;;;;;;1.15;0.40;;;;;;;20.47;48.22;101237.19;5013351;28;20034;-47
2023/05/27 00:28:11;;;;;;;0.98;0.55;;;;;;;20.45;48.21;101231.16;5013781;28;20379;-48
2023/05/27 00:30:37;;;;;;;1.33;0.50;;;;;;;20.49;48.60;101235.03;5000578;28;20102;-48
2023/05/27 00:33:03;;;;;;;1.33;0.47;;;;;;;20.11;48.80;101225.22;5004448;28;20120;-51
2023/05/27 00:35:29;;;;;;;1.80;0.50;;;;;;;20.23;48.98;101222.31;5012627;28;20069;-43
2023/05/27 00:37:55;;;;;;;0.80;0.50;;;;;;;20.16;50.83;101217.13;5008894;28;20096;-47
2023/05/27 00:40:24;;;;;;;1.40;0.50;;;;;;;20.10;50.20;101217.31;5004410;28;20041;-46
2023/05/27 00:42:51;;;;;;;1.50;0.50;;;;;;;20.20;50.70;101215.50;5013563;28;20073;-46
2023/05/27 00:45:17;;;;;;;0.70;0.50;;;;;;;20.06;50.51;101218.94;5013650;28;20030;-47
2023/05/27 00:47:44;;;;;;;1.60;0.50;;;;;;;20.20;50.45;101212.78;5010894;28;20263;-50
2023/05/27 00:50:10;;;;;;;1.20;0.50;;;;;;;19.97;50.54;101218.56;5013465;28;20030;-46
2023/05/27 00:52:37;;;;;;;1.05;0.50;;;;;;;20.00;49.96;101213.44;5012339;28;20065;-46
2023/05/27 00:55:04;;;;;;;0.90;0.50;;;;;;;19.87;50.82;101207.63;5012968;28;20050;-48
2023/05/27 00:57:30;;;;;;;0.80;0.60;;;;;;;19.72;51.32;101208.31;5013053;28;20033;-47
2023/05/27 00:59:56;;;;;;;1.67;0.80;;;;;;;19.69;52.81;101203.41;5013242;28;20034;-46
2023/05/27 01:02:22;;;;;;;0.75;0.70;;;;;;;19.59;51.75;101206.84;5013543;28;20057;-47
2023/05/27 01:04:48;;;;;;;1.42;0.50;;;;;;;19.77;50.59;101197.50;5013009;28;20518;-46
2023/05/27 01:07:34;;;;;;;2.88;0.75;;;;;;;19.64;51.23;101198.72;5012624;28;20083;-45
2023/05/27 01:10:29;;;;;;;7.05;0.80;;;;;;;19.52;51.95;101206.19;5008138;28;20022;-47
2023/05/27 01:13:01;;;;;;;2.75;0.98;;;;;;;19.45;52.14;101202.88;4985211;28;20090;-44
2023/05/27 01:15:31;;;;;;;4.45;0.80;;;;;;;19.43;52.07;101197.72;4993401;28;20072;-45
2023/05/27 01:18:01;;;;;;;1.27;0.50;;;;;;;19.48;52.52;101205.06;4993164;28;20041;-47
2023/05/27 01:20:29;;;;;;;3.22;0.77;;;;;;;19.25;53.13;101201.56;4992940;28;20030;-47
2023/05/27 01:22:57;;;;;;;2.20;0.68;;;;;;;19.20;54.13;101204.22;4992695;28;20033;-47
2023/05/27 01:25:24;;;;;;;2.20;0.70;;;;;;;19.29;52.82;101206.50;5005939;28;20077;-46
2023/05/27 01:27:52;;;;;;;1.27;0.60;;;;;;;19.44;52.19;101212.09;5011090;28;20060;-47
2023/05/27 01:30:20;;;;;;;0.75;0.55;;;;;;;19.38;51.67;101211.22;5009422;28;20033;-45
2023/05/27 01:32:55;;;;;;;0.98;0.60;;;;;;;19.59;52.13;101220.41;4992738;28;20391;-48
2023/05/27 01:35:33;;;;;;;1.90;0.60;;;;;;;19.61;51.27;101220.16;4992863;28;20034;-46
2023/05/27 01:38:05;;;;;;;1.70;0.60;;;;;;;19.31;52.23;101212.47;4992680;28;20030;-46
2023/05/27 01:40:33;;;;;;;6.18;0.85;;;;;;;19.31;53.07;101209.78;4992874;28;20030;-49
2023/05/27 01:43:00;;;;;;;4.50;1.23;;;;;;;19.31;52.75;101210.59;5004915;28;20026;-48
2023/05/27 01:45:27;;;;;;;12.18;4.00;;;;;;;19.23;52.90;101214.59;5012064;28;20033;-49
2023/05/27 01:47:53;;;;;;;6.70;1.50;;;;;;;19.35;51.80;101210.91;5011495;28;20033;-48
2023/05/27 01:50:19;;;;;;;1.30;0.57;;;;;;;19.56;52.18;101203.78;5012056;28;20029;-45
2023/05/27 01:52:46;;;;;;;1.35;0.50;;;;;;;19.57;50.85;101219.81;5010334;28;20026;-46
2023/05/27 01:55:12;;;;;;;0.70;0.50;;;;;;;19.42;51.54;101208.81;5009126;28;20559;-45
2023/05/27 01:57:38;;;;;;;1.48;0.43;;;;;;;19.51;51.72;101210.00;5000720;28;20483;-45
2023/05/27 02:00:07;;;;;;;0.75;0.50;;;;;;;19.35;52.03;101206.28;5011910;28;20541;-44
2023/05/27 02:02:33;;;;;;;1.95;0.40;;;;;;;19.33;51.34;101207.63;4999007;28;20475;-43
2023/05/27 02:04:59;;;;;;;0.80;0.30;;;;;;;19.41;50.82;101215.31;5010449;28;20120;-42
2023/05/27 02:07:27;;;;;;;1.30;0.50;;;;;;;19.58;51.94;101218.75;5012417;28;20478;-43
2023/05/27 02:09:54;;;;;;;0.55;0.40;;;;;;;19.82;50.04;101213.00;5011996;28;20110;-43
2023/05/27 02:12:20;;;;;;;1.23;0.50;;;;;;;19.90;49.45;101215.28;5011874;28;20018;-43
2023/05/27 02:14:48;;;;;;;0.90;0.57;;;;;;;19.92;49.56;101218.53;4994077;28;20058;-44
2023/05/27 02:17:14;;;;;;;1.05;0.50;;;;;;;20.43;48.64;101221.63;5011839;28;20025;-43
2023/05/27 02:19:41;;;;;;;0.63;0.50;;;;;;;20.45;48.56;101224.91;5013394;28;20053;-43
2023/05/27 02:22:07;;;;;;;0.50;0.45;;;;;;;20.45;47.85;101223.00;5014558;28;20025;-43
2023/05/27 02:24:33;;;;;;;0.80;0.52;;;;;;;20.48;48.09;101224.41;5015462;28;20025;-44
2023/05/27 02:27:01;;;;;;;0.63;0.40;;;;;;;20.02;48.69;101226.78;5015950;28;20061;-44
2023/05/27 02:29:27;;;;;;;2.10;0.55;;;;;;;20.15;48.38;101229.03;5011930;28;20061;-45
2023/05/27 02:31:53;;;;;;;0.77;0.50;;;;;;;20.39;47.49;101225.97;5000717;28;20061;-45
2023/05/27 02:34:19;;;;;;;1.02;0.57;;;;;;;19.85;48.61;101228.81;4992979;28;20038;-43
2023/05/27 02:36:46;;;;;;;0.88;0.40;;;;;;;19.62;49.66;101235.38;5000743;28;20026;-43
2023/05/27 02:39:12;;;;;;;0.90;0.50;;;;;;;19.76;49.81;101240.13;5007770;28;20018;-45
2023/05/27 02:41:38;;;;;;;0.77;0.50;;;;;;;19.56;50.04;101239.09;5012746;28;20037;-44
2023/05/27 02:44:05;;;;;;;1.73;0.70;;;;;;;19.28;50.55;101242.88;4995293;28;20041;-43
2023/05/27 02:46:32;;;;;;;2.45;0.77;;;;;;;19.48;50.58;101245.78;4995936;28;20475;-43
2023/05/27 02:48:58;;;;;;;1.00;0.60;;;;;;;18.80;52.01;101255.28;4995911;28;20391;-46
2023/05/27 02:51:24;;;;;;;0.47;0.40;;;;;;;18.68;52.32;101250.78;4995836;28;20483;-43
2023/05/27 02:53:51;;;;;;;1.10;0.57;;;;;;;18.22;53.81;101243.03;4999040;28;20026;-44
2023/05/27 02:56:17;;;;;;;0.68;0.60;;;;;;;17.93;54.64;101251.19;5014212;28;20049;-44
2023/05/27 02:58:44;;;;;;;0.43;0.40;;;;;;;17.39;56.31;101258.88;5015123;28;20092;-45
2023/05/27 03:01:10;;;;;;;1.48;0.40;;;;;;;17.39;56.25;101262.38;5015274;28;20026;-43
2023/05/27 03:03:36;;;;;;;1.20;0.50;;;;;;;17.00;57.63;101265.91;5014500;28;20117;-43
2023/05/27 03:06:03;;;;;;;1.30;0.57;;;;;;;16.63;58.92;101263.44;5014831;28;20026;-43
2023/05/27 03:08:29;;;;;;;0.80;0.50;;;;;;;16.52;59.39;101258.88;5014147;28;20450;-44
2023/05/27 03:10:55;;;;;;;1.08;0.40;;;;;;;16.18;60.28;101268.59;5014190;28;20026;-42
2023/05/27 03:13:22;;;;;;;1.77;0.65;;;;;;;16.16;60.39;101271.53;5014470;28;20025;-42
2023/05/27 03:15:48;;;;;;;0.88;0.60;;;;;;;15.96;61.12;101268.31;5013396;28;20026;-43
2023/05/27 03:18:14;;;;;;;0.50;0.50;;;;;;;15.67;61.95;101273.50;5015049;28;20022;-42
2023/05/27 03:20:41;;;;;;;1.77;0.50;;;;;;;15.38;62.60;101274.25;5014745;28;20436;-45
2023/05/27 03:23:07;;;;;;;0.88;0.50;;;;;;;15.25;63.65;101276.09;5014555;28;20030;-46
2023/05/27 03:25:34;;;;;;;0.50;0.50;;;;;;;15.13;63.98;101277.91;5013049;28;20392;-42
2023/05/27 03:28:00;;;;;;;0.80;0.80;;;;;;;15.15;64.38;101285.75;5014012;28;20033;-44
2023/05/27 03:30:26;;;;;;;1.45;0.65;;;;;;;15.09;64.66;101282.09;5014136;28;20026;-45
2023/05/27 03:32:52;;;;;;;1.15;0.70;;;;;;;15.07;64.66;101284.19;5014358;28;20030;-42
2023/05/27 03:35:18;;;;;;;0.70;0.60;;;;;;;15.00;65.14;101291.53;5014397;28;20065;-43
2023/05/27 03:37:45;;;;;;;0.50;0.50;;;;;;;14.85;65.82;101294.59;5014518;28;20455;-45
2023/05/27 03:40:12;;;;;;;0.95;0.70;;;;;;;14.93;65.61;101290.75;5014116;28;20030;-42
2023/05/27 03:42:38;;;;;;;0.80;0.55;;;;;;;14.99;65.80;101290.72;5011537;28;20030;-42
2023/05/27 03:45:05;;;;;;;1.58;0.68;;;;;;;14.70;67.23;101294.09;5014179;28;20444;-42
2023/05/27 03:47:31;;;;;;;1.15;0.70;;;;;;;14.60;67.86;101299.16;5014326;28;20054;-43
2023/05/27 03:49:57;;;;;;;1.05;0.90;;;;;;;14.68;67.55;101301.59;5014284;28;20105;-43
2023/05/27 03:52:24;;;;;;;1.45;0.68;;;;;;;14.78;67.61;101307.31;5014173;28;20038;-42
2023/05/27 03:54:50;;;;;;;0.60;0.60;;;;;;;14.70;68.21;101302.19;5013561;28;20394;-42
2023/05/27 03:57:16;;;;;;;1.27;0.77;;;;;;;14.53;68.97;101305.44;5014158;28;20057;-44
2023/05/27 03:59:42;;;;;;;3.15;1.48;;;;;;;14.60;68.76;101307.25;5014127;28;20104;-43
2023/05/27 04:02:09;;;;;;;0.60;0.57;;;;;;;14.71;68.20;101312.78;5014101;28;20026;-42
2023/05/27 04:04:35;;;;;;;1.08;0.90;;;;;;;14.69;68.19;101319.41;5011969;28;20030;-42
2023/05/27 04:07:01;;;;;;;1.67;0.90;;;;;;;14.64;68.56;101316.56;5013921;28;20105;-42
2023/05/27 04:09:27;;;;;;;1.25;0.90;;;;;;;14.63;68.36;101320.28;5013589;28;20030;-42
2023/05/27 04:11:53;;;;;;;2.13;1.08;;;;;;;14.61;68.91;101311.63;5003034;28;20041;-42
2023/05/27 04:14:20;;;;;;;1.70;1.05;;;;;;;14.62;68.63;101319.47;5029899;28;20037;-43
2023/05/27 04:16:46;;;;;;;2.13;1.05;;;;;;;14.68;68.32;101315.06;5022298;28;20022;-43
2023/05/27 04:19:13;;;;;;;1.40;0.80;;;;;;;14.69;68.54;101322.09;5033897;28;20033;-43
2023/05/27 04:21:39;;;;;;;1.15;0.80;;;;;;;14.68;68.99;101326.66;5033444;28;20071;-43
2023/05/27 04:24:06;;;;;;;1.00;0.80;;;;;;;14.70;68.83;101324.56;5033043;28;20053;-42
2023/05/27 04:26:32;;;;;;;2.40;0.93;;;;;;;14.57;69.32;101326.56;5033324;28;20091;-43
2023/05/27 04:28:59;;;;;;;2.03;0.77;;;;;;;14.66;68.80;101333.34;5024878;28;20076;-42
2023/05/27 04:31:28;;;;;;;1.70;0.98;;;;;;;14.60;69.12;101329.63;5012511;28;20030;-42
2023/05/27 04:33:55;;;;;;;1.83;0.95;;;;;;;14.59;69.11;101335.25;4996464;28;20030;-43
2023/05/27 04:36:25;;;;;;;2.35;0.90;;;;;;;14.59;69.32;101336.06;4993720;28;20026;-43
2023/05/27 04:38:51;;;;;;;1.38;0.90;;;;;;;14.54;69.30;101338.59;4993357;28;20563;-44
2023/05/27 04:41:20;;;;;;;0.82;0.80;;;;;;;14.56;69.23;101338.41;4992675;28;20054;-42
2023/05/27 04:43:47;;;;;;;1.10;0.80;;;;;;;14.45;69.23;101347.97;4992539;28;20031;-43
2023/05/27 04:46:14;;;;;;;1.58;0.90;;;;;;;14.38;69.54;101352.56;4994302;28;20041;-43
2023/05/27 04:48:40;;;;;;;1.20;1.00;;;;;;;14.45;69.68;101347.97;5013179;28;20484;-42
2023/05/27 04:51:07;;;;;;;0.98;0.80;;;;;;;14.57;69.15;101345.44;5013185;28;20022;-43
2023/05/27 04:53:34;;;;;;;1.60;0.90;;;;;;;14.51;69.11;101353.34;5012152;28;20125;-42
2023/05/27 04:56:00;;;;;;;0.90;0.80;;;;;;;14.49;68.81;101351.91;4993404;28;20054;-42
2023/05/27 04:58:26;;;;;;;0.85;0.80;;;;;;;14.37;69.08;101356.31;5000637;28;20026;-43
2023/05/27 05:00:54;;;;;;;1.50;0.98;;;;;;;14.26;69.63;101364.03;5001406;28;20022;-43
2023/05/27 05:03:21;;;;;;;1.13;0.60;;;;;;;14.16;69.88;101347.56;5019137;23;20046;-43
2023/05/27 05:05:51;;;;;;;1.10;0.80;;;;;;;14.27;69.77;101351.44;5013044;28;20040;-43
2023/05/27 05:08:20;;;;;;;0.77;0.70;;;;;;;14.20;69.98;101347.94;5012800;28;20569;-43
2023/05/27 05:10:48;;;;;;;1.67;0.63;;;;;;;14.06;70.60;101359.84;5012574;28;20566;-43
2023/05/27 05:13:15;;;;;;;2.42;0.75;;;;;;;13.93;70.94;101358.84;5011103;28;20030;-44
2023/05/27 05:15:45;;;;;;;0.98;0.85;;;;;;;13.88;71.42;101361.41;5011337;28;20037;-43
2023/05/27 05:18:12;;;;;;;1.20;0.90;;;;;;;13.97;71.39;101348.50;5029018;28;20022;-43
2023/05/27 05:20:39;;;;;;;0.88;0.80;;;;;;;14.02;71.20;101356.75;5028903;28;20026;-43
2023/05/27 05:23:07;;;;;;;1.38;0.70;;;;;;;14.06;71.33;101359.84;5012410;28;20029;-43
2023/05/27 05:25:37;;;;;;;3.10;1.00;;;;;;;13.99;71.23;101358.03;5012165;28;20438;-43
2023/05/27 05:28:07;;;;;;;2.42;0.88;;;;;;;14.02;71.21;101351.38;5012595;28;20032;-42
2023/05/27 05:30:33;;;;;;;1.50;0.75;;;;;;;14.05;71.36;101360.88;5012417;28;20050;-42
2023/05/27 05:33:00;;;;;;;1.38;0.85;;;;;;;14.06;70.92;101354.47;5015974;28;20076;-42
2023/05/27 05:35:26;;;;;;;2.72;1.17;;;;;;;14.03;71.17;101362.97;5024988;28;20057;-42
2023/05/27 05:37:52;;;;;;;1.67;0.90;;;;;;;13.95;71.59;101364.88;5012268;28;20129;-42
2023/05/27 05:40:18;;;;;;;1.10;1.00;;;;;;;14.07;71.03;101369.56;5012095;28;20036;-42
2023/05/27 05:42:45;;;;;;;1.23;0.90;;;;;;;13.97;71.74;101364.66;5011953;28;20056;-42
2023/05/27 05:45:12;;;;;;;1.00;0.85;;;;;;;13.88;71.76;101357.84;5012104;28;20037;-43
2023/05/27 05:47:38;;;;;;;1.20;0.90;;;;;;;13.88;71.75;101361.41;4985286;28;20026;-44
2023/05/27 05:50:05;;;;;;;2.38;0.95;;;;;;;13.93;71.40;101358.03;4992525;28;20027;-42
2023/05/27 05:52:31;;;;;;;1.27;0.70;;;;;;;13.82;72.22;101356.03;4991853;28;20022;-44
2023/05/27 05:54:57;;;;;;;1.60;0.90;;;;;;;13.98;71.13;101361.72;4995186;28;20030;-43
2023/05/27 05:57:23;;;;;;;1.35;0.93;;;;;;;13.97;71.00;101362.78;4992482;28;20050;-45
2023/05/27 05:59:50;;;;;;;2.08;1.33;;;;;;;13.98;71.72;101363.59;4996728;28;20022;-43
2023/05/27 06:02:16;;;;;;;1.95;0.98;;;;;;;14.03;71.45;101362.97;4992181;28;20084;-45
2023/05/27 06:04:43;;;;;;;1.20;1.00;;;;;;;13.97;71.85;101356.56;4992074;28;20112;-44
2023/05/27 06:07:09;;;;;;;1.33;0.90;;;;;;;13.84;72.15;101354.78;4992268;28;20038;-44
2023/05/27 06:09:35;;;;;;;1.77;1.08;;;;;;;13.92;71.95;101367.16;5002833;28;20022;-43
2023/05/27 06:12:01;;;;;;;1.45;0.90;;;;;;;14.04;71.53;101367.28;5031615;28;20025;-44
2023/05/27 06:14:27;;;;;;;2.38;1.10;;;;;;;14.08;71.49;101360.44;5031429;28;20033;-41
2023/05/27 06:16:54;;;;;;;1.33;0.85;;;;;;;14.00;71.34;101364.22;5025424;28;20061;-43
2023/05/27 06:19:20;;;;;;;2.60;1.40;;;;;;;13.99;71.13;101355.34;5011399;28;20466;-42
2023/05/27 06:21:46;;;;;;;2.38;1.23;;;;;;;13.87;72.31;101354.34;5011906;28;20030;-44
2023/05/27 06:24:12;;;;;;;1.80;1.33;;;;;;;13.95;72.13;101348.72;5011539;28;20033;-43
2023/05/27 06:26:39;;;;;;;1.67;1.30;;;;;;;14.05;71.74;101358.19;5012007;28;20034;-43
2023/05/27 06:29:05;;;;;;;1.05;0.90;;;;;;;13.93;70.98;101352.66;5011710;28;20030;-44
2023/05/27 06:31:32;;;;;;;1.08;0.80;;;;;;;13.89;71.49;101354.97;5003680;28;20033;-43
2023/05/27 06:33:59;;;;;;;0.88;0.75;;;;;;;13.90;71.73;101351.22;5012928;28;20124;-43
2023/05/27 06:36:25;;;;;;;1.90;0.80;;;;;;;13.81;72.28;101349.81;5031313;28;20029;-42
2023/05/27 06:38:52;;;;;;;3.78;0.90;;;;;;;13.76;72.55;101349.63;5028896;28;20026;-42
2023/05/27 06:41:18;;;;;;;2.30;0.90;;;;;;;13.79;72.48;101351.09;5031353;28;20443;-42
2023/05/27 06:43:44;;;;;;;1.42;1.02;;;;;;;13.76;72.68;101351.50;5019516;28;20128;-43
2023/05/27 06:46:10;;;;;;;1.95;1.00;;;;;;;13.86;71.86;101347.31;5009967;28;20040;-42
2023/05/27 06:48:37;;;;;;;1.90;0.90;;;;;;;13.88;71.84;101345.25;4991807;28;20037;-45
2023/05/27 06:51:03;;;;;;;1.55;0.95;;;;;;;13.84;72.16;101362.03;5025284;28;20034;-42
2023/05/27 06:53:30;;;;;;;1.45;0.95;;;;;;;13.76;72.43;101363.09;5031048;28;20096;-42
2023/05/27 06:55:56;;;;;;;1.48;1.02;;;;;;;13.74;72.97;101359.81;5031459;28;20548;-42
2023/05/27 06:58:22;;;;;;;1.55;1.00;;;;;;;13.83;72.46;101361.22;5031780;28;20480;-43
2023/05/27 07:00:48;;;;;;;1.20;0.90;;;;;;;13.86;72.52;101359.94;5031507;28;20108;-42
2023/05/27 07:03:15;;;;;;;1.10;0.73;;;;;;;13.92;72.26;101357.22;5031190;28;20112;-43
2023/05/27 07:05:41;;;;;;;2.95;1.15;;;;;;;13.82;72.39;101356.03;5033241;28;20025;-44
2023/05/27 07:08:07;;;;;;;1.13;0.90;;;;;;;13.93;71.61;101358.03;5035004;28;20034;-42
2023/05/27 07:10:33;;;;;;;2.80;0.80;;;;;;;13.77;72.31;101364.78;5013648;28;20386;-44
2023/05/27 07:12:59;;;;;;;1.20;1.10;;;;;;;13.86;71.33;101363.47;5014491;28;20100;-43
2023/05/27 07:15:30;;;;;;;1.10;0.93;;;;;;;13.82;71.44;101361.41;5014932;28;20049;-42
2023/05/27 07:17:57;;;;;;;4.55;1.75;;;;;;;13.63;72.58;101358.59;5014848;28;20025;-43
2023/05/27 07:20:24;;;;;;;1.73;1.13;;;;;;;13.53;72.92;101360.09;5015301;28;20041;-42
2023/05/27 07:22:50;;;;;;;1.00;0.90;;;;;;;13.74;72.29;101359.81;5014427;28;20030;-42
2023/05/27 07:25:16;;;;;;;1.55;0.85;;;;;;;13.64;72.56;101362.13;5014661;28;20030;-42
2023/05/27 07:27:42;;;;;;;0.95;0.80;;;;;;;13.72;71.89;101361.88;5014421;28;20099;-44
2023/05/27 07:30:09;;;;;;;1.17;0.85;;;;;;;13.70;72.08;101358.56;5014876;28;20032;-42
2023/05/27 07:32:36;;;;;;;2.55;1.15;;;;;;;13.66;72.61;101352.00;5004445;28;20041;-43
2023/05/27 07:35:02;;;;;;;2.13;1.10;;;;;;;13.63;72.78;101355.09;4994934;28;20092;-42
2023/05/27 07:37:30;;;;;;;1.52;1.10;;;;;;;13.50;73.21;101358.66;4994227;28;20026;-44
2023/05/27 07:39:56;;;;;;;0.80;0.80;;;;;;;13.47;73.52;101364.47;5007397;28;20065;-43
2023/05/27 07:42:22;;;;;;;1.30;1.10;;;;;;;13.59;73.01;101357.38;5014342;28;20049;-43
2023/05/27 07:44:48;;;;;;;1.52;1.02;;;;;;;13.54;73.37;101351.81;5014065;28;20030;-43
2023/05/27 07:47:14;;;;;;;2.28;0.80;;;;;;;13.66;72.65;101349.31;5006459;28;20034;-42
2023/05/27 07:49:41;;;;;;;1.00;0.90;;;;;;;13.64;72.69;101356.75;5014267;28;20121;-44
2023/05/27 07:52:07;;;;;;;2.00;0.77;;;;;;;13.56;73.48;101351.63;5014263;28;20105;-43
2023/05/27 07:54:33;;;;;;;1.10;1.00;;;;;;;13.78;72.44;101347.56;5013951;28;20026;-42
2023/05/27 07:56:59;;;;;;;1.27;0.75;;;;;;;13.65;72.71;101355.69;5014077;28;20122;-44
2023/05/27 07:59:26;;;;;;;0.75;0.68;;;;;;;13.59;72.84;101345.78;5014045;28;20053;-42
2023/05/27 08:01:52;;;;;;;1.67;0.98;;;;;;;13.41;73.64;101355.38;5013828;28;20499;-42
2023/05/27 08:04:18;;;;;;;1.33;0.70;;;;;;;13.47;73.47;101343.75;5013674;28;20486;-43
2023/05/27 08:06:45;;;;;;;1.85;1.00;;;;;;;13.55;73.18;101349.94;5013822;28;20117;-44
2023/05/27 08:09:11;;;;;;;1.48;0.77;;;;;;;13.40;73.92;101358.28;5012422;28;20034;-44
2023/05/27 08:11:37;;;;;;;0.80;0.80;;;;;;;13.40;73.47;101353.72;5013853;28;20088;-46
2023/05/27 08:14:03;;;;;;;1.10;0.70;;;;;;;13.23;74.10;101359.78;5013715;28;20103;-43
2023/05/27 08:16:29;;;;;;;1.88;0.60;;;;;;;13.22;74.37;101358.97;5001920;28;20038;-43
2023/05/27 08:18:56;;;;;;;0.95;0.80;;;;;;;13.28;74.34;101342.00;5033375;28;20032;-46
2023/05/27 08:21:22;;;;;;;0.43;0.43;;;;;;;13.20;74.58;101352.91;5024898;28;20529;-44
2023/05/27 08:23:48;;;;;;;0.80;0.60;;;;;;;13.22;74.46;101353.59;5012813;28;20065;-43
2023/05/27 08:26:14;;;;;;;0.88;0.70;;;;;;;13.10;75.22;101355.22;5013668;28;20021;-43
2023/05/27 08:28:41;;;;;;;0.77;0.60;;;;;;;13.13;74.70;101360.19;4995179;28;20037;-43
2023/05/27 08:31:07;;;;;;;0.63;0.60;;;;;;;13.19;74.30;101357.47;5013443;28;20018;-43
2023/05/27 08:33:33;;;;;;;0.88;0.60;;;;;;;13.19;74.39;101357.47;5020979;28;20021;-43
2023/05/27 08:35:59;;;;;;;1.20;0.60;;;;;;;13.12;74.79;101353.16;5033228;28;20061;-43
2023/05/27 08:38:26;;;;;;;1.48;0.80;;;;;;;13.23;74.50;101360.59;5032904;28;20552;-43
2023/05/27 08:40:53;;;;;;;0.70;0.50;;;;;;;13.11;74.96;101354.19;5033122;28;20055;-45
2023/05/27 08:43:22;;;;;;;1.00;0.40;;;;;;;13.18;74.79;101353.13;5023777;28;20038;-44
2023/05/27 08:45:49;;;;;;;0.40;0.40;;;;;;;13.06;75.38;101352.13;5015980;23;20111;-44
2023/05/27 08:48:16;;;;;;;0.90;0.60;;;;;;;13.06;75.63;101346.75;5013072;28;20100;-46
2023/05/27 08:50:42;;;;;;;0.50;0.47;;;;;;;13.13;75.48;101342.19;5013350;28;20106;-43
2023/05/27 08:53:09;;;;;;;0.88;0.50;;;;;;;13.08;75.63;101349.22;5012540;28;20029;-43
2023/05/27 08:55:39;;;;;;;1.05;0.70;;;;;;;13.08;75.72;101349.22;5013050;28;20079;-44
2023/05/27 08:58:06;;;;;;;1.10;0.47;;;;;;;13.20;75.23;101347.53;5012483;28;20106;-44
2023/05/27 09:00:33;;;;;;;0.65;0.30;;;;;;;13.07;76.03;101340.34;4996840;28;20030;-43
2023/05/27 09:02:59;;;;;;;0.40;0.40;;;;;;;13.13;76.09;101341.38;4992948;28;20022;-45
2023/05/27 09:05:27;;;;;;;0.50;0.50;;;;;;;13.13;75.91;101344.06;5005331;28;20045;-45
2023/05/27 09:07:55;;;;;;;1.42;0.55;;;;;;;13.24;74.85;101351.50;5013085;28;20386;-42
2023/05/27 09:10:21;;;;;;;0.90;0.40;;;;;;;13.17;75.37;101342.59;5012973;28;20026;-43
2023/05/27 09:12:50;;;;;;;1.50;0.50;;;;;;;13.09;75.81;101340.13;5011870;28;20049;-45
2023/05/27 09:15:17;;;;;;;0.60;0.38;;;;;;;13.20;74.97;101347.53;5012572;28;20037;-45
2023/05/27 09:17:45;;;;;;;0.43;0.40;;;;;;;13.10;75.74;101339.09;5012710;28;20080;-43
2023/05/27 09:20:12;;;;;;;0.30;0.30;;;;;;;13.13;74.95;101336.00;5012806;28;20026;-43
2023/05/27 09:22:40;;;;;;;0.40;0.20;;;;;;;13.16;74.95;101340.97;5012442;28;20021;-44
2023/05/27 09:25:08;;;;;;;0.50;0.40;;;;;;;13.18;75.39;101336.19;5012383;28;20532;-44
2023/05/27 09:27:34;;;;;;;0.50;0.28;;;;;;;13.23;75.22;101336.41;5011417;28;20034;-44
2023/05/27 09:30:08;;;;;;;0.30;0.30;;;;;;;13.29;75.50;101334.75;5012174;28;20029;-44
2023/05/27 09:32:34;;;;;;;1.67;0.40;;;;;;;13.16;75.65;101336.41;5012300;28;20029;-45
2023/05/27 09:35:02;;;;;;;2.05;0.20;;;;;;;13.24;75.35;101335.38;5012311;28;20080;-44
2023/05/27 09:37:33;;;;;;;0.95;0.20;;;;;;;13.36;75.01;101330.97;5012093;28;20030;-44
2023/05/27 09:40:14;;;;;;;0.20;0.20;;;;;;;13.31;75.37;101332.66;5011826;28;20036;-43
2023/05/27 09:42:50;;;;;;;0.20;0.20;;;;;;;13.35;76.12;101332.03;4993625;28;20102;-45
2023/05/27 09:45:18;;;;;;;0.50;0.40;;;;;;;13.40;76.97;101315.25;4997427;28;20383;-43
2023/05/27 09:47:50;;;;;;;0.30;0.17;;;;;;;13.35;77.46;101328.53;5012830;28;20045;-44
2023/05/27 09:50:17;;;;;;;0.52;0.20;;;;;;;13.27;78.50;101320.66;5012674;28;20055;-44
2023/05/27 09:52:44;;;;;;;0.10;0.10;;;;;;;13.33;78.99;101320.66;5012033;28;20395;-44
2023/05/27 09:55:12;;;;;;;0.80;0.10;;;;;;;13.20;80.73;101317.97;5011960;28;20088;-43
2023/05/27 09:57:40;;;;;;;0.50;0.10;;;;;;;13.22;81.46;101312.44;5012186;28;20026;-43
2023/05/27 10:00:17;;;;;;;0.08;0.08;;;;;;;13.21;81.57;101322.34;5011984;28;20030;-45
2023/05/27 10:02:46;;;;;;;1.77;0.20;;;;;;;13.25;81.69;101323.56;5010112;28;20076;-43
2023/05/27 10:05:15;;;;;;;0.10;0.10;;;;;;;13.17;81.40;101326.47;5011667;28;20037;-43
2023/05/27 10:07:43;;;;;;;0.20;0.20;;;;;;;13.06;82.74;101316.38;5012111;28;20052;-43
2023/05/27 10:10:12;;;;;;;0.30;0.10;;;;;;;13.12;82.57;101321.72;5015544;28;20022;-43
2023/05/27 10:12:40;;;;;;;0.43;0.20;;;;;;;13.06;82.33;101321.75;5031431;28;20103;-43
2023/05/27 10:15:08;;;;;;;0.47;0.10;;;;;;;13.15;81.41;101323.16;5013458;28;20044;-42
2023/05/27 10:17:48;;;;;;;0.10;0.10;;;;;;;13.12;80.61;101315.53;5031648;28;20056;-41
2023/05/27 10:20:32;;;;;;;1.95;0.43;;;;;;;13.24;79.01;101313.88;5031738;28;20032;-46
2023/05/27 10:23:21;;;;;;;0.20;0.20;;;;;;;13.06;79.89;101309.13;5031169;28;20022;-44
2023/05/27 10:25:52;;;;;;;0.60;0.30;;;;;;;13.01;79.76;101305.44;5024823;28;20113;-42
2023/05/27 10:28:28;;;;;;;0.20;0.20;;;;;;;13.02;80.19;101310.59;5011830;28;20080;-44
2023/05/27 10:31:23;;;;;;;0.80;0.32;;;;;;;13.11;79.77;101305.81;5012007;28;20493;-42
2023/05/27 10:33:53;;;;;;;0.43;0.30;;;;;;;13.15;78.97;101307.84;5010978;28;20042;-42
2023/05/27 10:36:31;;;;;;;0.45;0.30;;;;;;;13.16;78.97;101311.41;5011582;28;20056;-43
2023/05/27 10:39:13;;;;;;;0.60;0.38;;;;;;;13.15;79.13;101302.47;5011775;28;20450;-43
2023/05/27 10:41:50;;;;;;;0.50;0.30;;;;;;;13.10;79.81;101307.69;5014764;28;20022;-43
2023/05/27 10:44:35;;;;;;;0.55;0.25;;;;;;;12.91;80.51;101306.69;5015365;28;20037;-43
2023/05/27 10:47:05;;;;;;;0.95;0.40;;;;;;;12.92;81.02;101302.97;5015339;28;20037;-42
2023/05/27 10:49:37;;;;;;;0.63;0.40;;;;;;;13.02;80.53;101307.06;5015786;28;20120;-43
2023/05/27 10:52:12;;;;;;;0.52;0.28;;;;;;;13.10;79.30;101298.78;5015250;28;20026;-42
2023/05/27 10:54:40;;;;;;;0.60;0.20;;;;;;;13.04;80.21;101303.13;5015459;28;20026;-42
2023/05/27 10:57:07;;;;;;;0.35;0.35;;;;;;;13.12;79.63;101294.84;5015151;28;20032;-42
2023/05/27 10:59:50;;;;;;;0.85;0.40;;;;;;;13.06;80.06;101302.94;5015283;28;20483;-43
2023/05/27 11:02:20;;;;;;;0.70;0.50;;;;;;;13.18;79.81;101296.69;5014941;28;20487;-42
2023/05/27 11:04:48;;;;;;;0.40;0.40;;;;;;;13.03;80.27;101297.97;5014980;28;20097;-42
2023/05/27 11:07:22;;;;;;;0.68;0.57;;;;;;;13.06;79.26;101298.38;5015097;28;20026;-45
2023/05/27 11:09:53;;;;;;;0.50;0.30;;;;;;;13.03;79.40;101306.03;5020697;28;20028;-43
2023/05/27 11:12:24;;;;;;;0.88;0.30;;;;;;;13.13;78.62;101298.38;5029166;28;20445;-43
2023/05/27 11:14:52;;;;;;;0.60;0.30;;;;;;;13.05;78.38;101301.28;4995250;28;20030;-44
2023/05/27 11:17:20;;;;;;;0.20;0.20;;;;;;;12.90;79.06;101296.97;5011170;28;20022;-45
2023/05/27 11:19:46;;;;;;;0.88;0.40;;;;;;;12.83;79.18;101306.91;5014524;28;20053;-44
2023/05/27 11:22:15;;;;;;;0.75;0.30;;;;;;;12.85;79.52;101293.28;5014489;28;20029;-44
2023/05/27 11:24:41;;;;;;;0.70;0.40;;;;;;;12.91;78.85;101301.31;5014711;28;20104;-43
2023/05/27 11:27:15;;;;;;;0.50;0.50;;;;;;;13.07;78.22;101294.66;5009790;28;20029;-42